sensor_id;sensor_type;location;lat;lon;timestamp;temperature;humidity
59148;DHT22;44930;52.878;6.168;2022-12-19T00:01:10;0.80;99.90
59148;DHT22;44930;52.878;6.168;2022-12-19T00:03:52;0.90;99.90
59148;DHT22;44930;52.878;6.168;2022-12-19T00:08:46;1.20;99.90
59148;DHT22;44930;52.878;6.168;2022-12-19T00:11:14;1.20;99.90
59148;DHT22;44930;52.878;6.168;2022-12-19T00:13:40;1.00;99.90
59148;DHT22;44930;52.878;6.168;2022-12-19T00:16:10;1.10;99.90
59148;DHT22;44930;52.878;6.168;2022-12-19T00:18:38;1.10;99.90
59148;DHT22;44930;52.878;6.168;2022-12-19T00:23:33;1.10;99.90
59148;DHT22;44930;52.878;6.168;2022-12-19T00:31:02;1.20;99.90
59148;DHT22;44930;52.878;6.168;2022-12-19T00:35:58;1.30;99.90
59148;DHT22;44930;52.878;6.168;2022-12-19T00:38:24;1.20;99.90
59148;DHT22;44930;52.878;6.168;2022-12-19T00:40:50;1.30;99.90
59148;DHT22;44930;52.878;6.168;2022-12-19T00:45:42;1.30;99.90
59148;DHT22;44930;52.878;6.168;2022-12-19T00:48:07;1.10;99.90
59148;DHT22;44930;52.878;6.168;2022-12-19T00:50:33;1.20;99.90
59148;DHT22;44930;52.878;6.168;2022-12-19T00:52:58;1.30;99.90
59148;DHT22;44930;52.878;6.168;2022-12-19T01:00:16;1.40;99.90
59148;DHT22;44930;52.878;6.168;2022-12-19T01:02:43;1.40;99.90
59148;DHT22;44930;52.878;6.168;2022-12-19T01:05:09;1.40;99.90
59148;DHT22;44930;52.878;6.168;2022-12-19T01:07:35;1.40;99.90
59148;DHT22;44930;52.878;6.168;2022-12-19T01:10:01;1.50;99.90
59148;DHT22;44930;52.878;6.168;2022-12-19T01:12:26;1.60;99.90
59148;DHT22;44930;52.878;6.168;2022-12-19T01:15:15;1.50;99.90
59148;DHT22;44930;52.878;6.168;2022-12-19T01:17:41;1.60;99.90
59148;DHT22;44930;52.878;6.168;2022-12-19T01:20:07;1.60;99.90
59148;DHT22;44930;52.878;6.168;2022-12-19T01:22:33;1.50;99.90
59148;DHT22;44930;52.878;6.168;2022-12-19T01:24:58;1.60;99.90
59148;DHT22;44930;52.878;6.168;2022-12-19T01:32:16;1.70;99.90
59148;DHT22;44930;52.878;6.168;2022-12-19T01:34:41;1.70;99.90
59148;DHT22;44930;52.878;6.168;2022-12-19T01:37:07;1.60;99.90
59148;DHT22;44930;52.878;6.168;2022-12-19T01:39:32;1.60;99.90
59148;DHT22;44930;52.878;6.168;2022-12-19T01:41:58;1.60;99.90
59148;DHT22;44930;52.878;6.168;2022-12-19T01:46:53;1.60;99.90
59148;DHT22;44930;52.878;6.168;2022-12-19T01:51:48;1.60;99.90
59148;DHT22;44930;52.878;6.168;2022-12-19T01:56:53;2.00;99.90
59148;DHT22;44930;52.878;6.168;2022-12-19T01:59:23;1.50;99.90
59148;DHT22;44930;52.878;6.168;2022-12-19T02:01:56;1.50;99.90
59148;DHT22;44930;52.878;6.168;2022-12-19T02:04:26;1.60;99.90
59148;DHT22;44930;52.878;6.168;2022-12-19T02:06:54;1.50;99.90
59148;DHT22;44930;52.878;6.168;2022-12-19T02:11:46;1.50;99.90
59148;DHT22;44930;52.878;6.168;2022-12-19T02:14:12;1.60;99.90
59148;DHT22;44930;52.878;6.168;2022-12-19T02:22:04;1.80;99.90
59148;DHT22;44930;52.878;6.168;2022-12-19T02:25:07;2.00;99.90
59148;DHT22;44930;52.878;6.168;2022-12-19T02:36:18;1.70;99.90
59148;DHT22;44930;52.878;6.168;2022-12-19T02:39:10;1.90;99.90
59148;DHT22;44930;52.878;6.168;2022-12-19T02:41:54;1.80;99.90
59148;DHT22;44930;52.878;6.168;2022-12-19T02:44:31;1.60;99.90
59148;DHT22;44930;52.878;6.168;2022-12-19T02:46:59;1.90;99.90
59148;DHT22;44930;52.878;6.168;2022-12-19T02:49:28;2.10;99.90
59148;DHT22;44930;52.878;6.168;2022-12-19T02:51:53;2.00;99.90
59148;DHT22;44930;52.878;6.168;2022-12-19T02:54:19;2.00;99.90
59148;DHT22;44930;52.878;6.168;2022-12-19T02:56:53;1.90;99.90
59148;DHT22;44930;52.878;6.168;2022-12-19T02:59:28;2.00;99.90
59148;DHT22;44930;52.878;6.168;2022-12-19T03:04:58;2.20;99.90
59148;DHT22;44930;52.878;6.168;2022-12-19T03:07:39;2.00;99.90
59148;DHT22;44930;52.878;6.168;2022-12-19T03:10:23;2.10;99.90
59148;DHT22;44930;52.878;6.168;2022-12-19T03:12:53;2.10;99.90
59148;DHT22;44930;52.878;6.168;2022-12-19T03:15:21;2.20;99.90
59148;DHT22;44930;52.878;6.168;2022-12-19T03:17:47;2.00;99.90
59148;DHT22;44930;52.878;6.168;2022-12-19T03:20:25;2.30;99.90
59148;DHT22;44930;52.878;6.168;2022-12-19T03:22:52;2.10;99.90
59148;DHT22;44930;52.878;6.168;2022-12-19T03:25:19;2.10;99.90
59148;DHT22;44930;52.878;6.168;2022-12-19T03:27:47;2.20;99.90
59148;DHT22;44930;52.878;6.168;2022-12-19T03:30:14;2.10;99.90
59148;DHT22;44930;52.878;6.168;2022-12-19T03:32:42;2.20;99.90
59148;DHT22;44930;52.878;6.168;2022-12-19T03:35:16;2.20;99.90
59148;DHT22;44930;52.878;6.168;2022-12-19T03:37:43;2.20;99.90
59148;DHT22;44930;52.878;6.168;2022-12-19T03:48:15;2.50;99.90
59148;DHT22;44930;52.878;6.168;2022-12-19T03:50:52;2.40;99.90
59148;DHT22;44930;52.878;6.168;2022-12-19T03:58:46;2.30;99.90
59148;DHT22;44930;52.878;6.168;2022-12-19T04:03:38;2.60;99.90
59148;DHT22;44930;52.878;6.168;2022-12-19T04:06:04;2.10;99.90
59148;DHT22;44930;52.878;6.168;2022-12-19T04:08:31;2.50;99.90
59148;DHT22;44930;52.878;6.168;2022-12-19T04:13:41;2.50;99.90
59148;DHT22;44930;52.878;6.168;2022-12-19T04:16:20;2.10;99.90
59148;DHT22;44930;52.878;6.168;2022-12-19T04:18:57;2.60;99.90
59148;DHT22;44930;52.878;6.168;2022-12-19T04:21:31;2.60;99.90
59148;DHT22;44930;52.878;6.168;2022-12-19T04:24:06;2.70;99.90
59148;DHT22;44930;52.878;6.168;2022-12-19T04:26:35;2.20;99.90
59148;DHT22;44930;52.878;6.168;2022-12-19T04:29:04;2.50;99.90
59148;DHT22;44930;52.878;6.168;2022-12-19T04:31:30;2.70;99.90
59148;DHT22;44930;52.878;6.168;2022-12-19T04:33:56;2.70;99.90
59148;DHT22;44930;52.878;6.168;2022-12-19T04:36:23;2.70;99.90
59148;DHT22;44930;52.878;6.168;2022-12-19T04:38:49;2.70;99.90
59148;DHT22;44930;52.878;6.168;2022-12-19T04:41:14;2.80;99.90
59148;DHT22;44930;52.878;6.168;2022-12-19T04:43:40;2.80;99.90
59148;DHT22;44930;52.878;6.168;2022-12-19T04:46:05;2.80;99.90
59148;DHT22;44930;52.878;6.168;2022-12-19T04:51:00;2.80;99.90
59148;DHT22;44930;52.878;6.168;2022-12-19T04:53:25;2.80;99.90
59148;DHT22;44930;52.878;6.168;2022-12-19T04:56:02;3.00;99.90
59148;DHT22;44930;52.878;6.168;2022-12-19T05:00:58;3.00;99.90
59148;DHT22;44930;52.878;6.168;2022-12-19T05:03:24;2.80;99.90
59148;DHT22;44930;52.878;6.168;2022-12-19T05:05:49;2.80;99.90
59148;DHT22;44930;52.878;6.168;2022-12-19T05:08:15;2.80;99.90
59148;DHT22;44930;52.878;6.168;2022-12-19T05:10:40;2.90;99.90
59148;DHT22;44930;52.878;6.168;2022-12-19T05:13:06;2.90;99.90
59148;DHT22;44930;52.878;6.168;2022-12-19T05:15:31;2.90;99.90
59148;DHT22;44930;52.878;6.168;2022-12-19T05:17:57;3.00;99.90
59148;DHT22;44930;52.878;6.168;2022-12-19T05:20:23;3.00;99.90
59148;DHT22;44930;52.878;6.168;2022-12-19T05:22:48;2.90;99.90
59148;DHT22;44930;52.878;6.168;2022-12-19T05:27:40;3.00;99.90
59148;DHT22;44930;52.878;6.168;2022-12-19T05:30:06;3.10;99.90
59148;DHT22;44930;52.878;6.168;2022-12-19T05:39:51;3.10;99.90
59148;DHT22;44930;52.878;6.168;2022-12-19T05:42:16;3.10;99.90
59148;DHT22;44930;52.878;6.168;2022-12-19T05:44:42;3.20;99.90
59148;DHT22;44930;52.878;6.168;2022-12-19T05:47:07;3.10;99.90
59148;DHT22;44930;52.878;6.168;2022-12-19T05:49:33;3.10;99.90
59148;DHT22;44930;52.878;6.168;2022-12-19T05:51:58;3.20;99.90
59148;DHT22;44930;52.878;6.168;2022-12-19T05:54:24;3.10;99.90
59148;DHT22;44930;52.878;6.168;2022-12-19T05:56:49;3.20;99.90
59148;DHT22;44930;52.878;6.168;2022-12-19T05:59:15;3.10;99.90
59148;DHT22;44930;52.878;6.168;2022-12-19T06:01:40;3.20;99.90
59148;DHT22;44930;52.878;6.168;2022-12-19T06:04:06;2.90;99.90
59148;DHT22;44930;52.878;6.168;2022-12-19T06:06:32;3.30;99.90
59148;DHT22;44930;52.878;6.168;2022-12-19T06:08:58;3.20;99.90
59148;DHT22;44930;52.878;6.168;2022-12-19T06:11:25;3.30;99.90
59148;DHT22;44930;52.878;6.168;2022-12-19T06:13:51;3.30;99.90
59148;DHT22;44930;52.878;6.168;2022-12-19T06:18:44;3.10;99.90
59148;DHT22;44930;52.878;6.168;2022-12-19T06:21:13;3.30;99.90
59148;DHT22;44930;52.878;6.168;2022-12-19T06:23:39;3.40;99.90
59148;DHT22;44930;52.878;6.168;2022-12-19T06:26:06;3.40;99.90
59148;DHT22;44930;52.878;6.168;2022-12-19T06:28:33;3.40;99.90
59148;DHT22;44930;52.878;6.168;2022-12-19T06:31:01;3.40;99.90
59148;DHT22;44930;52.878;6.168;2022-12-19T06:33:29;3.40;99.90
59148;DHT22;44930;52.878;6.168;2022-12-19T06:36:03;3.60;99.90
59148;DHT22;44930;52.878;6.168;2022-12-19T06:38:30;3.50;99.90
59148;DHT22;44930;52.878;6.168;2022-12-19T06:40:56;3.50;99.90
59148;DHT22;44930;52.878;6.168;2022-12-19T06:43:40;3.50;99.90
59148;DHT22;44930;52.878;6.168;2022-12-19T06:46:06;3.50;99.90
59148;DHT22;44930;52.878;6.168;2022-12-19T06:48:32;3.60;99.90
59148;DHT22;44930;52.878;6.168;2022-12-19T06:50:57;3.60;99.90
59148;DHT22;44930;52.878;6.168;2022-12-19T06:53:24;3.70;99.90
59148;DHT22;44930;52.878;6.168;2022-12-19T06:55:52;3.70;99.90
59148;DHT22;44930;52.878;6.168;2022-12-19T06:58:19;3.60;99.90
59148;DHT22;44930;52.878;6.168;2022-12-19T07:00:45;3.70;99.90
59148;DHT22;44930;52.878;6.168;2022-12-19T07:03:12;3.70;99.90
59148;DHT22;44930;52.878;6.168;2022-12-19T07:05:39;3.70;99.90
59148;DHT22;44930;52.878;6.168;2022-12-19T07:08:06;3.70;99.90
59148;DHT22;44930;52.878;6.168;2022-12-19T07:10:32;3.80;99.90
59148;DHT22;44930;52.878;6.168;2022-12-19T07:12:58;3.80;99.90
59148;DHT22;44930;52.878;6.168;2022-12-19T07:17:49;3.90;99.90
59148;DHT22;44930;52.878;6.168;2022-12-19T07:20:15;3.80;99.90
59148;DHT22;44930;52.878;6.168;2022-12-19T07:22:42;3.90;99.90
59148;DHT22;44930;52.878;6.168;2022-12-19T07:25:09;3.70;99.90
59148;DHT22;44930;52.878;6.168;2022-12-19T07:27:35;4.00;99.90
59148;DHT22;44930;52.878;6.168;2022-12-19T07:30:02;4.10;99.90
59148;DHT22;44930;52.878;6.168;2022-12-19T07:32:28;4.20;99.90
59148;DHT22;44930;52.878;6.168;2022-12-19T07:37:19;4.00;99.90
59148;DHT22;44930;52.878;6.168;2022-12-19T07:39:46;4.10;99.90
59148;DHT22;44930;52.878;6.168;2022-12-19T07:42:12;4.10;99.90
59148;DHT22;44930;52.878;6.168;2022-12-19T07:44:38;4.20;99.90
59148;DHT22;44930;52.878;6.168;2022-12-19T07:49:29;4.00;99.90
59148;DHT22;44930;52.878;6.168;2022-12-19T07:51:55;4.10;99.90
59148;DHT22;44930;52.878;6.168;2022-12-19T07:54:20;4.20;99.90
59148;DHT22;44930;52.878;6.168;2022-12-19T07:56:46;4.20;99.90
59148;DHT22;44930;52.878;6.168;2022-12-19T08:01:38;4.30;99.90
59148;DHT22;44930;52.878;6.168;2022-12-19T08:04:04;4.30;99.90
59148;DHT22;44930;52.878;6.168;2022-12-19T08:06:29;4.30;99.90
59148;DHT22;44930;52.878;6.168;2022-12-19T08:08:55;4.30;99.90
59148;DHT22;44930;52.878;6.168;2022-12-19T08:11:22;4.40;99.90
59148;DHT22;44930;52.878;6.168;2022-12-19T08:13:52;4.60;99.90
59148;DHT22;44930;52.878;6.168;2022-12-19T08:16:18;4.50;99.90
59148;DHT22;44930;52.878;6.168;2022-12-19T08:18:44;4.40;99.90
59148;DHT22;44930;52.878;6.168;2022-12-19T08:21:10;4.60;99.90
59148;DHT22;44930;52.878;6.168;2022-12-19T08:26:09;4.60;99.90
59148;DHT22;44930;52.878;6.168;2022-12-19T08:28:36;4.60;99.90
59148;DHT22;44930;52.878;6.168;2022-12-19T08:31:10;4.40;99.90
59148;DHT22;44930;52.878;6.168;2022-12-19T08:33:36;4.80;99.90
59148;DHT22;44930;52.878;6.168;2022-12-19T08:36:07;4.70;99.90
59148;DHT22;44930;52.878;6.168;2022-12-19T08:38:33;4.70;99.90
59148;DHT22;44930;52.878;6.168;2022-12-19T08:43:26;4.50;99.90
59148;DHT22;44930;52.878;6.168;2022-12-19T08:45:52;4.60;99.90
59148;DHT22;44930;52.878;6.168;2022-12-19T08:48:17;4.60;99.90
59148;DHT22;44930;52.878;6.168;2022-12-19T08:50:51;4.50;99.90
59148;DHT22;44930;52.878;6.168;2022-12-19T08:53:17;4.70;99.90
59148;DHT22;44930;52.878;6.168;2022-12-19T08:55:42;4.70;99.90
59148;DHT22;44930;52.878;6.168;2022-12-19T08:58:08;4.70;99.90
59148;DHT22;44930;52.878;6.168;2022-12-19T09:00:33;4.60;99.90
59148;DHT22;44930;52.878;6.168;2022-12-19T09:02:59;4.80;99.90
59148;DHT22;44930;52.878;6.168;2022-12-19T09:05:24;4.80;99.90
59148;DHT22;44930;52.878;6.168;2022-12-19T09:07:50;4.70;99.90
59148;DHT22;44930;52.878;6.168;2022-12-19T09:10:15;4.80;99.90
59148;DHT22;44930;52.878;6.168;2022-12-19T09:15:07;5.00;99.90
59148;DHT22;44930;52.878;6.168;2022-12-19T09:17:33;5.00;99.90
59148;DHT22;44930;52.878;6.168;2022-12-19T09:19:58;5.10;99.90
59148;DHT22;44930;52.878;6.168;2022-12-19T09:22:24;5.00;99.90
59148;DHT22;44930;52.878;6.168;2022-12-19T09:24:49;5.00;99.90
59148;DHT22;44930;52.878;6.168;2022-12-19T09:27:15;5.10;99.90
59148;DHT22;44930;52.878;6.168;2022-12-19T09:29:40;5.00;99.90
59148;DHT22;44930;52.878;6.168;2022-12-19T09:32:06;5.10;99.90
59148;DHT22;44930;52.878;6.168;2022-12-19T09:36:58;5.30;99.90
59148;DHT22;44930;52.878;6.168;2022-12-19T09:39:23;5.30;99.90
59148;DHT22;44930;52.878;6.168;2022-12-19T09:42:08;5.20;99.90
59148;DHT22;44930;52.878;6.168;2022-12-19T09:45:26;5.20;99.90
59148;DHT22;44930;52.878;6.168;2022-12-19T09:47:57;5.40;99.90
59148;DHT22;44930;52.878;6.168;2022-12-19T09:50:49;5.40;99.90
59148;DHT22;44930;52.878;6.168;2022-12-19T09:53:25;6.00;99.90
59148;DHT22;44930;52.878;6.168;2022-12-19T09:55:53;5.50;99.90
59148;DHT22;44930;52.878;6.168;2022-12-19T09:58:42;5.20;99.90
59148;DHT22;44930;52.878;6.168;2022-12-19T10:01:18;5.90;99.90
59148;DHT22;44930;52.878;6.168;2022-12-19T10:04:11;5.80;99.90
59148;DHT22;44930;52.878;6.168;2022-12-19T10:06:38;5.60;99.90
59148;DHT22;44930;52.878;6.168;2022-12-19T10:09:15;5.70;99.90
59148;DHT22;44930;52.878;6.168;2022-12-19T10:20:29;6.20;99.90
59148;DHT22;44930;52.878;6.168;2022-12-19T10:28:42;6.30;99.90
59148;DHT22;44930;52.878;6.168;2022-12-19T10:31:19;6.40;99.90
59148;DHT22;44930;52.878;6.168;2022-12-19T10:33:54;6.60;99.90
59148;DHT22;44930;52.878;6.168;2022-12-19T10:36:23;6.80;99.90
59148;DHT22;44930;52.878;6.168;2022-12-19T10:38:53;6.90;99.90
59148;DHT22;44930;52.878;6.168;2022-12-19T10:41:23;7.10;99.90
59148;DHT22;44930;52.878;6.168;2022-12-19T10:48:58;7.20;99.90
59148;DHT22;44930;52.878;6.168;2022-12-19T10:51:28;7.00;99.90
59148;DHT22;44930;52.878;6.168;2022-12-19T10:53:57;7.30;99.90
59148;DHT22;44930;52.878;6.168;2022-12-19T10:56:26;7.50;99.90
59148;DHT22;44930;52.878;6.168;2022-12-19T10:58:54;7.40;99.90
59148;DHT22;44930;52.878;6.168;2022-12-19T11:01:41;7.50;99.90
59148;DHT22;44930;52.878;6.168;2022-12-19T11:04:32;7.60;99.90
59148;DHT22;44930;52.878;6.168;2022-12-19T11:09:39;7.70;99.90
59148;DHT22;44930;52.878;6.168;2022-12-19T11:14:37;7.60;99.90
59148;DHT22;44930;52.878;6.168;2022-12-19T11:17:03;7.60;99.90
59148;DHT22;44930;52.878;6.168;2022-12-19T11:19:37;7.50;99.90
59148;DHT22;44930;52.878;6.168;2022-12-19T11:25:03;7.60;99.90
59148;DHT22;44930;52.878;6.168;2022-12-19T11:32:42;7.70;99.90
59148;DHT22;44930;52.878;6.168;2022-12-19T11:35:24;7.40;99.90
59148;DHT22;44930;52.878;6.168;2022-12-19T11:37:56;7.80;99.90
59148;DHT22;44930;52.878;6.168;2022-12-19T11:40:42;7.80;99.90
59148;DHT22;44930;52.878;6.168;2022-12-19T11:46:20;7.80;99.90
59148;DHT22;44930;52.878;6.168;2022-12-19T11:48:54;7.70;99.90
59148;DHT22;44930;52.878;6.168;2022-12-19T11:56:40;7.80;99.90
59148;DHT22;44930;52.878;6.168;2022-12-19T11:59:16;7.90;99.90
59148;DHT22;44930;52.878;6.168;2022-12-19T12:01:59;7.80;99.90
59148;DHT22;44930;52.878;6.168;2022-12-19T12:07:35;7.80;99.90
59148;DHT22;44930;52.878;6.168;2022-12-19T12:10:18;7.70;99.90
59148;DHT22;44930;52.878;6.168;2022-12-19T12:15:34;7.80;99.90
59148;DHT22;44930;52.878;6.168;2022-12-19T12:20:58;7.90;99.90
59148;DHT22;44930;52.878;6.168;2022-12-19T12:23:53;7.90;99.90
59148;DHT22;44930;52.878;6.168;2022-12-19T12:26:34;8.20;99.90
59148;DHT22;44930;52.878;6.168;2022-12-19T12:29:23;8.00;99.90
59148;DHT22;44930;52.878;6.168;2022-12-19T12:32:04;8.00;99.90
59148;DHT22;44930;52.878;6.168;2022-12-19T12:37:41;8.00;99.90
59148;DHT22;44930;52.878;6.168;2022-12-19T12:40:21;8.00;99.90
59148;DHT22;44930;52.878;6.168;2022-12-19T12:43:39;8.00;99.90
59148;DHT22;44930;52.878;6.168;2022-12-19T12:46:01;8.00;99.90
59148;DHT22;44930;52.878;6.168;2022-12-19T12:48:36;8.00;99.90
59148;DHT22;44930;52.878;6.168;2022-12-19T12:51:03;8.10;99.90
59148;DHT22;44930;52.878;6.168;2022-12-19T12:53:34;8.10;99.90
59148;DHT22;44930;52.878;6.168;2022-12-19T12:56:03;7.90;99.90
59148;DHT22;44930;52.878;6.168;2022-12-19T13:03:40;8.00;99.90
59148;DHT22;44930;52.878;6.168;2022-12-19T13:06:24;8.20;99.90
59148;DHT22;44930;52.878;6.168;2022-12-19T13:08:52;8.30;99.90
59148;DHT22;44930;52.878;6.168;2022-12-19T13:16:53;8.20;99.90
59148;DHT22;44930;52.878;6.168;2022-12-19T13:22:13;8.00;99.90
59148;DHT22;44930;52.878;6.168;2022-12-19T13:24:56;8.40;99.90
59148;DHT22;44930;52.878;6.168;2022-12-19T13:45:26;8.20;99.90
59148;DHT22;44930;52.878;6.168;2022-12-19T13:47:58;8.20;99.90
59148;DHT22;44930;52.878;6.168;2022-12-19T13:50:31;8.20;99.90
59148;DHT22;44930;52.878;6.168;2022-12-19T13:53:00;8.30;99.90
59148;DHT22;44930;52.878;6.168;2022-12-19T13:55:29;8.40;99.90
59148;DHT22;44930;52.878;6.168;2022-12-19T13:57:55;8.50;99.90
59148;DHT22;44930;52.878;6.168;2022-12-19T14:00:30;8.10;99.90
59148;DHT22;44930;52.878;6.168;2022-12-19T14:02:59;8.30;99.90
59148;DHT22;44930;52.878;6.168;2022-12-19T14:05:37;8.40;99.90
59148;DHT22;44930;52.878;6.168;2022-12-19T14:08:04;8.30;99.90
59148;DHT22;44930;52.878;6.168;2022-12-19T14:10:33;8.50;99.90
59148;DHT22;44930;52.878;6.168;2022-12-19T14:15:48;8.30;99.90
59148;DHT22;44930;52.878;6.168;2022-12-19T14:18:24;8.20;99.90
59148;DHT22;44930;52.878;6.168;2022-12-19T14:21:06;8.20;99.90
59148;DHT22;44930;52.878;6.168;2022-12-19T14:26:00;8.40;99.90
59148;DHT22;44930;52.878;6.168;2022-12-19T14:28:42;8.90;99.90
59148;DHT22;44930;52.878;6.168;2022-12-19T14:31:13;8.30;99.90
59148;DHT22;44930;52.878;6.168;2022-12-19T14:33:43;8.30;99.90
59148;DHT22;44930;52.878;6.168;2022-12-19T14:36:10;8.30;99.90
59148;DHT22;44930;52.878;6.168;2022-12-19T14:38:36;8.30;99.90
59148;DHT22;44930;52.878;6.168;2022-12-19T14:41:03;8.30;99.90
59148;DHT22;44930;52.878;6.168;2022-12-19T14:43:30;8.30;99.90
59148;DHT22;44930;52.878;6.168;2022-12-19T14:48:49;8.50;99.90
59148;DHT22;44930;52.878;6.168;2022-12-19T14:56:33;8.30;99.90
59148;DHT22;44930;52.878;6.168;2022-12-19T14:58:59;8.30;99.90
59148;DHT22;44930;52.878;6.168;2022-12-19T15:01:31;8.30;99.90
59148;DHT22;44930;52.878;6.168;2022-12-19T15:04:13;8.40;99.90
59148;DHT22;44930;52.878;6.168;2022-12-19T15:09:13;8.40;99.90
59148;DHT22;44930;52.878;6.168;2022-12-19T15:11:45;8.40;99.90
59148;DHT22;44930;52.878;6.168;2022-12-19T15:14:40;8.40;99.90
59148;DHT22;44930;52.878;6.168;2022-12-19T15:17:21;8.30;99.90
59148;DHT22;44930;52.878;6.168;2022-12-19T15:19:48;8.30;99.90
59148;DHT22;44930;52.878;6.168;2022-12-19T15:22:14;8.20;99.90
59148;DHT22;44930;52.878;6.168;2022-12-19T15:24:39;8.30;99.90
59148;DHT22;44930;52.878;6.168;2022-12-19T15:27:12;8.20;99.90
59148;DHT22;44930;52.878;6.168;2022-12-19T15:29:39;8.20;99.90
59148;DHT22;44930;52.878;6.168;2022-12-19T15:32:05;8.10;99.90
59148;DHT22;44930;52.878;6.168;2022-12-19T15:34:31;8.30;99.90
59148;DHT22;44930;52.878;6.168;2022-12-19T15:36:59;8.10;99.90
59148;DHT22;44930;52.878;6.168;2022-12-19T15:39:25;8.20;99.90
59148;DHT22;44930;52.878;6.168;2022-12-19T15:41:55;8.20;99.90
59148;DHT22;44930;52.878;6.168;2022-12-19T15:46:58;8.10;99.90
59148;DHT22;44930;52.878;6.168;2022-12-19T15:49:24;8.10;99.90
59148;DHT22;44930;52.878;6.168;2022-12-19T15:51:49;8.00;99.90
59148;DHT22;44930;52.878;6.168;2022-12-19T15:54:16;8.10;99.90
59148;DHT22;44930;52.878;6.168;2022-12-19T15:56:44;8.00;99.90
59148;DHT22;44930;52.878;6.168;2022-12-19T15:59:32;7.80;99.90
59148;DHT22;44930;52.878;6.168;2022-12-19T16:02:00;7.90;99.90
59148;DHT22;44930;52.878;6.168;2022-12-19T16:04:26;7.90;99.90
59148;DHT22;44930;52.878;6.168;2022-12-19T16:06:52;7.80;99.90
59148;DHT22;44930;52.878;6.168;2022-12-19T16:09:21;7.70;99.90
59148;DHT22;44930;52.878;6.168;2022-12-19T16:11:47;7.80;99.90
59148;DHT22;44930;52.878;6.168;2022-12-19T16:14:13;7.70;99.90
59148;DHT22;44930;52.878;6.168;2022-12-19T16:16:39;7.80;99.90
59148;DHT22;44930;52.878;6.168;2022-12-19T16:19:27;7.50;99.90
59148;DHT22;44930;52.878;6.168;2022-12-19T16:21:53;7.70;99.90
59148;DHT22;44930;52.878;6.168;2022-12-19T16:24:19;7.80;99.90
59148;DHT22;44930;52.878;6.168;2022-12-19T16:26:55;7.90;99.90
59148;DHT22;44930;52.878;6.168;2022-12-19T16:29:24;7.70;99.90
59148;DHT22;44930;52.878;6.168;2022-12-19T16:31:51;7.70;99.90
59148;DHT22;44930;52.878;6.168;2022-12-19T16:34:19;7.70;99.90
59148;DHT22;44930;52.878;6.168;2022-12-19T16:36:46;7.80;99.90
59148;DHT22;44930;52.878;6.168;2022-12-19T16:39:12;7.80;99.90
59148;DHT22;44930;52.878;6.168;2022-12-19T16:41:38;7.80;99.90
59148;DHT22;44930;52.878;6.168;2022-12-19T16:44:16;7.80;99.90
59148;DHT22;44930;52.878;6.168;2022-12-19T16:46:42;7.80;99.90
59148;DHT22;44930;52.878;6.168;2022-12-19T16:51:42;7.60;99.90
59148;DHT22;44930;52.878;6.168;2022-12-19T16:54:10;7.50;99.90
59148;DHT22;44930;52.878;6.168;2022-12-19T16:56:45;7.70;99.90
59148;DHT22;44930;52.878;6.168;2022-12-19T16:59:35;7.70;99.90
59148;DHT22;44930;52.878;6.168;2022-12-19T17:02:08;7.60;99.90
59148;DHT22;44930;52.878;6.168;2022-12-19T17:04:41;7.70;99.90
59148;DHT22;44930;52.878;6.168;2022-12-19T17:07:09;7.90;99.90
59148;DHT22;44930;52.878;6.168;2022-12-19T17:09:34;7.80;99.90
59148;DHT22;44930;52.878;6.168;2022-12-19T17:12:01;7.70;99.90
59148;DHT22;44930;52.878;6.168;2022-12-19T17:14:29;7.70;99.90
59148;DHT22;44930;52.878;6.168;2022-12-19T17:16:57;7.80;99.90
59148;DHT22;44930;52.878;6.168;2022-12-19T17:19:26;7.60;99.90
59148;DHT22;44930;52.878;6.168;2022-12-19T17:21:53;7.70;99.90
59148;DHT22;44930;52.878;6.168;2022-12-19T17:24:19;7.60;99.90
59148;DHT22;44930;52.878;6.168;2022-12-19T17:26:45;7.60;99.90
59148;DHT22;44930;52.878;6.168;2022-12-19T17:31:38;7.50;99.90
59148;DHT22;44930;52.878;6.168;2022-12-19T17:34:25;7.60;99.90
59148;DHT22;44930;52.878;6.168;2022-12-19T17:36:52;7.40;99.90
59148;DHT22;44930;52.878;6.168;2022-12-19T17:39:24;7.30;99.90
59148;DHT22;44930;52.878;6.168;2022-12-19T17:41:50;7.60;99.90
59148;DHT22;44930;52.878;6.168;2022-12-19T17:44:16;7.60;99.90
59148;DHT22;44930;52.878;6.168;2022-12-19T17:46:43;7.60;99.90
59148;DHT22;44930;52.878;6.168;2022-12-19T17:49:28;7.50;99.90
59148;DHT22;44930;52.878;6.168;2022-12-19T17:51:54;7.50;99.90
59148;DHT22;44930;52.878;6.168;2022-12-19T17:54:22;7.50;99.90
59148;DHT22;44930;52.878;6.168;2022-12-19T17:56:48;7.30;99.90
59148;DHT22;44930;52.878;6.168;2022-12-19T17:59:13;7.40;99.90
59148;DHT22;44930;52.878;6.168;2022-12-19T18:01:40;7.40;99.90
59148;DHT22;44930;52.878;6.168;2022-12-19T18:04:16;7.40;99.90
59148;DHT22;44930;52.878;6.168;2022-12-19T18:06:43;7.20;99.90
59148;DHT22;44930;52.878;6.168;2022-12-19T18:09:27;7.00;99.90
59148;DHT22;44930;52.878;6.168;2022-12-19T18:11:52;7.20;99.90
59148;DHT22;44930;52.878;6.168;2022-12-19T18:14:18;7.20;99.90
59148;DHT22;44930;52.878;6.168;2022-12-19T18:16:45;7.20;99.90
59148;DHT22;44930;52.878;6.168;2022-12-19T18:19:17;7.30;99.90
59148;DHT22;44930;52.878;6.168;2022-12-19T18:21:43;7.10;99.90
59148;DHT22;44930;52.878;6.168;2022-12-19T18:24:13;7.10;99.90
59148;DHT22;44930;52.878;6.168;2022-12-19T18:26:43;7.00;99.90
59148;DHT22;44930;52.878;6.168;2022-12-19T18:29:09;7.00;99.90
59148;DHT22;44930;52.878;6.168;2022-12-19T18:31:36;7.00;99.90
59148;DHT22;44930;52.878;6.168;2022-12-19T18:34:02;6.90;99.90
59148;DHT22;44930;52.878;6.168;2022-12-19T18:36:38;6.90;99.90
59148;DHT22;44930;52.878;6.168;2022-12-19T18:39:08;7.00;99.90
59148;DHT22;44930;52.878;6.168;2022-12-19T18:41:40;7.00;99.90
59148;DHT22;44930;52.878;6.168;2022-12-19T18:44:05;6.90;99.90
59148;DHT22;44930;52.878;6.168;2022-12-19T18:46:31;7.00;99.90
59148;DHT22;44930;52.878;6.168;2022-12-19T18:48:57;6.90;99.90
59148;DHT22;44930;52.878;6.168;2022-12-19T18:51:23;6.90;99.90
59148;DHT22;44930;52.878;6.168;2022-12-19T18:53:49;6.90;99.90
59148;DHT22;44930;52.878;6.168;2022-12-19T18:56:15;6.80;99.90
59148;DHT22;44930;52.878;6.168;2022-12-19T18:58:41;6.90;99.90
59148;DHT22;44930;52.878;6.168;2022-12-19T19:01:12;6.90;99.90
59148;DHT22;44930;52.878;6.168;2022-12-19T19:03:40;6.90;99.90
59148;DHT22;44930;52.878;6.168;2022-12-19T19:06:20;6.80;99.90
59148;DHT22;44930;52.878;6.168;2022-12-19T19:08:46;6.90;99.90
59148;DHT22;44930;52.878;6.168;2022-12-19T19:11:12;6.80;99.90
59148;DHT22;44930;52.878;6.168;2022-12-19T19:13:38;6.80;99.90
59148;DHT22;44930;52.878;6.168;2022-12-19T19:16:14;6.80;99.90
59148;DHT22;44930;52.878;6.168;2022-12-19T19:18:41;6.80;99.90
59148;DHT22;44930;52.878;6.168;2022-12-19T19:21:09;6.80;99.90
59148;DHT22;44930;52.878;6.168;2022-12-19T19:24:07;6.90;99.90
59148;DHT22;44930;52.878;6.168;2022-12-19T19:26:34;6.70;99.90
59148;DHT22;44930;52.878;6.168;2022-12-19T19:29:00;6.80;99.90
59148;DHT22;44930;52.878;6.168;2022-12-19T19:31:27;6.80;99.90
59148;DHT22;44930;52.878;6.168;2022-12-19T19:34:08;6.80;99.90
59148;DHT22;44930;52.878;6.168;2022-12-19T19:36:36;6.70;99.90